キエフ/ボリースピリ の空港の天気 - METARとTAF

ボリースピリ国際空港(キエフ) ( UKBB / KBP ) - ウクライナ ボリスピリ (キエフ近郊)
飛行場実況気象(Metar)
観測時間03/29 00:00 EEST (03/28 21:00 UTC)
風向・風速西北西 2m/s
視程10km以上
天気現象
なし
気温3℃
湿度65%
気圧1015hPa
METARUKBB 282100Z 29002MPS CAVOK 03/M03 Q1015 R88/CLRD// NOSIG
過去の天気等 Google飛行場航空写真 Wunderground天気予報

過去48時間のMETAR

飛行場予報(TAF)
発表時間: 3/28 20:00 EEST (3/28 17:00 UTC)
予報対象時間: 28日21時 EEST ~ 29日21時 EEST
風向・風速西北西 5m/s 瞬間風速 10m/s
視程10km以上
なし
29日9時 EEST ~ 29日11時 EEST に徐々に
風向・風速西 5m/s
TAF UKBB 281700Z 2818/2918 30005G10MPS CAVOK
BECMG 2906/2908 26005MPS TX16/2912Z TN02/2903Z